createdAt,value
2022-11-12T00:02:24.009Z,32.80
2022-11-12T00:07:44.376Z,32.70
2022-11-12T00:18:25.920Z,32.60
2022-11-12T00:23:46.544Z,32.90
2022-11-12T00:34:27.957Z,33.10
2022-11-12T00:39:48.115Z,33.20
2022-11-12T00:45:09.580Z,32.90
2022-11-12T00:50:30.023Z,33.10
2022-11-12T00:55:50.430Z,33.20
2022-11-12T01:01:13.482Z,33.20
2022-11-12T01:11:54.994Z,32.80
2022-11-12T01:17:15.107Z,32.80
2022-11-12T01:22:35.550Z,32.60
2022-11-12T01:33:16.973Z,32.90
2022-11-12T01:38:38.455Z,32.90
2022-11-12T01:44:10.825Z,32.60
2022-11-12T01:49:54.128Z,32.90
2022-11-12T01:55:22.146Z,32.80
2022-11-12T02:00:43.306Z,32.80
2022-11-12T02:06:09.443Z,33.00
2022-11-12T02:11:29.896Z,33.00
2022-11-12T02:16:50.353Z,33.10
2022-11-12T02:27:31.983Z,33.20
2022-11-12T02:32:52.319Z,33.20
2022-11-12T02:38:12.677Z,33.40
2022-11-12T02:43:33.185Z,33.40
2022-11-12T02:48:53.549Z,33.30
2022-11-12T02:54:14.031Z,33.30
2022-11-12T02:59:34.378Z,33.40
2022-11-12T03:04:54.913Z,33.40
2022-11-12T03:10:16.456Z,33.40
2022-11-12T03:15:36.924Z,33.40
2022-11-12T03:20:57.326Z,33.30
2022-11-12T03:26:17.800Z,33.50
2022-11-12T03:31:39.141Z,33.40
2022-11-12T03:36:59.235Z,33.40
2022-11-12T03:47:45.972Z,33.40
2022-11-12T03:53:06.523Z,33.40
2022-11-12T03:58:26.998Z,33.40
2022-11-12T04:09:08.644Z,33.30
2022-11-12T04:14:28.840Z,33.20
2022-11-12T04:20:07.634Z,33.10
2022-11-12T04:25:46.541Z,33.20
2022-11-12T04:31:07.039Z,33.20
2022-11-12T04:36:27.386Z,33.40
2022-11-12T04:42:06.189Z,33.30
2022-11-12T04:47:28.867Z,33.40
2022-11-12T04:52:48.973Z,33.40
2022-11-12T05:03:30.219Z,33.40
2022-11-12T05:08:50.740Z,33.40
2022-11-12T05:19:33.602Z,33.50
2022-11-12T05:24:54.023Z,33.30
2022-11-12T05:30:14.637Z,33.30
2022-11-12T05:35:34.700Z,33.20
2022-11-12T05:46:15.815Z,33.40
2022-11-12T05:51:36.141Z,33.30
2022-11-12T05:56:56.449Z,33.40
2022-11-12T06:02:16.889Z,33.30
2022-11-12T06:07:37.085Z,33.20
2022-11-12T06:12:57.961Z,33.10
2022-11-12T06:18:18.257Z,33.30
2022-11-12T06:23:38.620Z,33.50
2022-11-12T06:28:58.931Z,33.30
2022-11-12T06:34:19.386Z,33.30
2022-11-12T06:39:39.620Z,33.20
2022-11-12T06:45:00.107Z,33.20
2022-11-12T06:50:20.370Z,33.30
2022-11-12T06:55:40.752Z,33.20
2022-11-12T07:01:11.228Z,33.30
2022-11-12T07:06:34.378Z,33.20
2022-11-12T07:11:54.592Z,33.40
2022-11-12T07:17:14.998Z,33.00
2022-11-12T07:22:35.366Z,33.30
2022-11-12T07:27:55.701Z,33.30
2022-11-12T07:38:39.515Z,32.80
2022-11-12T07:43:59.961Z,33.20
2022-11-12T07:49:20.353Z,33.20
2022-11-12T07:54:40.711Z,33.30
2022-11-12T08:00:01.082Z,33.10
2022-11-12T08:05:21.774Z,33.10
2022-11-12T08:10:42.272Z,33.10
2022-11-12T08:16:02.601Z,32.80
2022-11-12T08:21:22.997Z,32.70
2022-11-12T08:26:43.639Z,32.90
2022-11-12T08:32:04.083Z,32.70
2022-11-12T08:37:24.623Z,32.70
2022-11-12T08:42:44.931Z,32.80
2022-11-12T08:48:14.131Z,32.90
2022-11-12T08:53:35.653Z,32.90
2022-11-12T09:04:16.716Z,32.80
2022-11-12T09:09:36.724Z,32.80
2022-11-12T09:15:09.573Z,32.80
2022-11-12T09:20:37.422Z,32.80
2022-11-12T09:25:57.903Z,32.80
2022-11-12T09:36:40.224Z,32.80
2022-11-12T09:42:06.618Z,32.70
2022-11-12T09:47:32.698Z,32.50
2022-11-12T09:53:04.863Z,32.50
2022-11-12T09:58:27.353Z,32.30
2022-11-12T10:03:48.013Z,32.20
2022-11-12T10:09:19.486Z,31.80
2022-11-12T10:14:54.793Z,32.30
2022-11-12T10:20:57.463Z,32.30
2022-11-12T10:26:21.507Z,32.10
2022-11-12T10:31:41.725Z,32.20
2022-11-12T10:37:06.926Z,32.10
2022-11-12T10:42:27.325Z,32.20
2022-11-12T10:47:47.832Z,32.00
2022-11-12T10:53:11.851Z,32.10
2022-11-12T10:58:32.319Z,32.10
2022-11-12T11:03:57.644Z,31.50
2022-11-12T11:09:21.461Z,31.20
2022-11-12T11:14:44.409Z,31.10
2022-11-12T11:20:29.317Z,31.40
2022-11-12T11:25:52.072Z,31.50
2022-11-12T11:32:04.672Z,31.60
2022-11-12T11:37:28.730Z,31.20
2022-11-12T11:43:24.079Z,30.60
2022-11-12T11:48:59.260Z,30.70
2022-11-12T11:54:47.049Z,30.80
2022-11-12T12:00:23.657Z,30.20
2022-11-12T12:06:05.746Z,30.50
2022-11-12T12:11:35.555Z,30.60
2022-11-12T12:17:06.443Z,30.40
2022-11-12T12:22:45.280Z,30.40
2022-11-12T12:28:25.441Z,30.20
2022-11-12T12:33:45.705Z,30.30
2022-11-12T12:39:22.526Z,30.30
2022-11-12T12:44:59.966Z,30.30
2022-11-12T12:50:21.563Z,30.40
2022-11-12T12:55:48.626Z,30.20
2022-11-12T13:01:29.302Z,29.90
2022-11-12T13:06:49.679Z,29.80
2022-11-12T13:12:10.300Z,29.70
2022-11-12T13:17:46.409Z,29.40
2022-11-12T13:23:14.264Z,29.70
2022-11-12T13:28:34.484Z,29.70
2022-11-12T13:33:54.970Z,29.50
2022-11-12T13:39:19.304Z,29.60
2022-11-12T13:44:39.831Z,29.40
2022-11-12T13:50:01.627Z,29.40
2022-11-12T13:55:23.042Z,29.50
2022-11-12T14:00:58.256Z,29.20
2022-11-12T14:06:31.391Z,29.30
2022-11-12T14:12:29.273Z,29.50
2022-11-12T14:18:07.537Z,29.70
2022-11-12T14:23:28.582Z,29.60
2022-11-12T14:28:56.479Z,29.60
2022-11-12T14:34:29.037Z,29.60
2022-11-12T14:39:49.383Z,29.60
2022-11-12T14:45:21.598Z,29.60
2022-11-12T14:50:47.975Z,29.70
2022-11-12T14:56:31.315Z,29.70
2022-11-12T15:02:29.590Z,29.80
2022-11-12T15:07:58.467Z,29.80
2022-11-12T15:13:24.766Z,29.80
2022-11-12T15:19:03.671Z,29.80
2022-11-12T15:24:34.927Z,30.20
2022-11-12T15:30:13.954Z,29.70
2022-11-12T15:35:37.016Z,29.80
2022-11-12T15:40:58.950Z,29.70
2022-11-12T15:46:19.460Z,29.90
2022-11-12T15:51:39.671Z,30.00
2022-11-12T15:57:00.182Z,30.00
2022-11-12T16:02:20.578Z,30.10
2022-11-12T16:13:03.431Z,30.10
2022-11-12T16:18:23.755Z,30.10
2022-11-12T16:23:44.872Z,30.10
2022-11-12T16:29:15.075Z,30.40
2022-11-12T16:34:35.299Z,30.40
2022-11-12T16:39:55.715Z,30.70
2022-11-12T16:45:21.225Z,30.40
2022-11-12T16:50:41.599Z,30.70
2022-11-12T16:56:02.015Z,30.60
2022-11-12T17:01:26.941Z,30.50
2022-11-12T17:06:47.503Z,30.60
2022-11-12T17:12:08.319Z,30.50
2022-11-12T17:17:28.775Z,30.80
2022-11-12T17:22:49.057Z,30.80
2022-11-12T17:28:10.177Z,30.90
2022-11-12T17:33:30.552Z,30.80
2022-11-12T17:38:55.165Z,31.00
2022-11-12T17:44:19.747Z,30.90
2022-11-12T17:49:39.909Z,31.00
2022-11-12T17:55:00.213Z,31.30
2022-11-12T18:00:20.558Z,31.20
2022-11-12T18:05:40.976Z,31.20
2022-11-12T18:11:02.399Z,31.20
2022-11-12T18:16:28.246Z,31.40
2022-11-12T18:21:48.650Z,31.30
2022-11-12T18:27:09.162Z,31.40
2022-11-12T18:32:29.317Z,31.40
2022-11-12T18:37:49.639Z,31.40
2022-11-12T18:43:13.434Z,31.60
2022-11-12T18:48:35.371Z,31.50
2022-11-12T18:53:55.411Z,31.60
2022-11-12T18:59:16.321Z,31.60
2022-11-12T19:04:38.814Z,31.70
2022-11-12T19:10:14.685Z,32.40
2022-11-12T19:15:36.083Z,31.60
2022-11-12T19:21:26.260Z,32.30
2022-11-12T19:26:46.838Z,31.60
2022-11-12T19:32:07.486Z,31.60
2022-11-12T19:37:33.499Z,31.60
2022-11-12T19:42:54.649Z,31.60
2022-11-12T19:48:14.867Z,31.60
2022-11-12T19:53:44.399Z,31.80
2022-11-12T19:59:04.806Z,31.60
2022-11-12T20:04:25.166Z,31.60
2022-11-12T20:09:45.505Z,32.50
2022-11-12T20:15:06.751Z,32.00
2022-11-12T20:20:26.984Z,31.90
2022-11-12T20:25:47.613Z,31.90
2022-11-12T20:31:12.105Z,31.80
2022-11-12T20:36:32.413Z,32.30
2022-11-12T20:41:53.057Z,31.80
2022-11-12T20:47:13.181Z,31.70
2022-11-12T20:52:33.602Z,31.80
2022-11-12T21:03:15.230Z,31.70
2022-11-12T21:08:36.106Z,31.40
2022-11-12T21:13:58.181Z,31.40
2022-11-12T21:19:18.476Z,31.70
2022-11-12T21:24:39.064Z,32.60
2022-11-12T21:35:20.127Z,31.60
2022-11-12T21:40:40.569Z,32.00
2022-11-12T21:46:01.059Z,31.60
2022-11-12T21:51:24.223Z,32.60
2022-11-12T21:56:45.031Z,32.50
2022-11-12T22:02:05.650Z,31.90
2022-11-12T22:07:25.947Z,31.60
2022-11-12T22:18:27.630Z,31.90
2022-11-12T22:23:48.546Z,31.90
2022-11-12T22:39:50.741Z,32.00
2022-11-12T22:45:11.920Z,32.00
2022-11-12T22:50:32.096Z,32.00
2022-11-12T22:55:52.523Z,31.90
2022-11-12T23:01:32.027Z,31.90
2022-11-12T23:06:52.354Z,32.00
2022-11-12T23:12:12.652Z,32.10
2022-11-12T23:17:33.721Z,32.20
2022-11-12T23:28:15.107Z,32.30
2022-11-12T23:38:57.469Z,32.10
2022-11-12T23:44:17.789Z,32.10
2022-11-12T23:49:38.202Z,32.20
2022-11-12T23:54:58.515Z,32.30
